This is the latest recevied weather packets stored in our database for station/object CT4TX-11. If no packets are shown the sender has not sent any weather packets the latest 10 day(s).
| Time | Temp. | Humidity | Pressure | Rain* | Wind** | Luminosity | Snow |
|---|---|---|---|---|---|---|---|
| 1777592073 | 25.56° C | 43% | 1006.7 hPa | - | - | - | - |
| 1777591172 | 25.56° C | 43% | 1006.6 hPa | - | - | - | - |
| 1777590272 | 25.56° C | 43% | 1006.5 hPa | - | - | - | - |
| 1777589372 | 25.56° C | 43% | 1006.5 hPa | - | - | - | - |
| 1777588472 | 25.56° C | 43% | 1006.5 hPa | - | - | - | - |
| 1777587571 | 25.56° C | 43% | 1006.5 hPa | - | - | - | - |
| 1777586671 | 26.11° C | 43% | 1006.5 hPa | - | - | - | - |
| 1777585770 | 25.56° C | 45% | 1006.5 hPa | - | - | - | - |
| 1777584902 | 25.56° C | 43% | 1006.4 hPa | - | - | - | - |
| 1777584001 | 26.11° C | 42% | 1006.3 hPa | - | - | - | - |
| 1777583101 | 25.56° C | 43% | 1006.3 hPa | - | - | - | - |
| 1777582201 | 25.56° C | 42% | 1006.2 hPa | - | - | - | - |
| 1777581300 | 25.56° C | 42% | 1006.2 hPa | - | - | - | - |
| 1777580400 | 25.56° C | 41% | 1006.1 hPa | - | - | - | - |
| 1777579500 | 25.56° C | 40% | 1005.9 hPa | - | - | - | - |
| 1777578600 | 26.11° C | 40% | 1005.8 hPa | - | - | - | - |
| 1777577699 | 25.56° C | 40% | 1005.7 hPa | - | - | - | - |
| 1777576799 | 25.56° C | 40% | 1005.5 hPa | - | - | - | - |
| 1777575899 | 25.56° C | 40% | 1005.5 hPa | - | - | - | - |
| 1777574999 | 27.22° C | 37% | 1005.5 hPa | - | - | - | - |
| 1777574098 | 27.22° C | 38% | 1005.4 hPa | - | - | - | - |
| 1777573198 | 26.67° C | 40% | 1005.3 hPa | - | - | - | - |
| 1777572297 | 25.56° C | 41% | 1005.2 hPa | - | - | - | - |
| 1777571397 | 25.56° C | 40% | 1005.3 hPa | - | - | - | - |
| 1777570497 | 25.56° C | 39% | 1005.3 hPa | - | - | - | - |
* Rain since midnight (hover to see other rain measurements)
** Current wind speed in m/s (hover to see current wind gust speed)